Time;durP1;ratioP1;P1;durP2;ratioP2;P2;SDS_P1;SDS_P2;PMS_P1;PMS_P2;Temp;Humidity;BMP_temperature;BMP_pressure;BME280_temperature;BME280_humidity;BME280_pressure;Samples;Min_cycle;Max_cycle;Signal;HPM_P1;HPM_P2
2022/12/12 00:02:14;;;;;;;30.23;25.40;;;-1.50;99.90;;;;;;5098456;28;20537;-53
2022/12/12 00:04:39;;;;;;;33.43;25.00;;;-1.40;99.90;;;;;;5099685;28;20218;-57
2022/12/12 00:07:05;;;;;;;33.50;25.70;;;-1.50;99.90;;;;;;5101215;28;20880;-53
2022/12/12 00:09:30;;;;;;;30.97;24.20;;;-1.50;99.90;;;;;;5099902;28;20220;-56
2022/12/12 00:11:56;;;;;;;32.60;24.23;;;-1.50;99.90;;;;;;5099135;28;20195;-55
2022/12/12 00:14:22;;;;;;;29.13;24.20;;;-1.50;99.90;;;;;;5099467;28;20630;-55
2022/12/12 00:16:47;;;;;;;31.00;23.80;;;-1.50;99.90;;;;;;5099974;28;20226;-54
2022/12/12 00:19:13;;;;;;;28.50;23.60;;;-1.50;99.90;;;;;;5099122;28;20184;-56
2022/12/12 00:21:38;;;;;;;31.73;23.90;;;-1.50;99.90;;;;;;5100449;28;20222;-48
2022/12/12 00:24:05;;;;;;;32.43;24.67;;;-1.50;99.90;;;;;;5098658;28;20201;-58
2022/12/12 00:26:33;;;;;;;30.25;24.30;;;-1.50;99.90;;;;;;5099864;28;20175;-53
2022/12/12 00:29:00;;;;;;;32.20;25.20;;;-1.50;99.90;;;;;;5100038;28;20683;-56
2022/12/12 00:31:27;;;;;;;30.85;24.35;;;-1.50;99.90;;;;;;5100084;28;20962;-54
2022/12/12 00:33:53;;;;;;;31.88;24.95;;;-1.50;99.90;;;;;;5100116;28;20198;-57
2022/12/12 00:36:22;;;;;;;35.30;25.05;;;-1.40;99.90;;;;;;5099593;28;20572;-56
2022/12/12 00:38:48;;;;;;;31.20;25.90;;;-1.40;99.90;;;;;;5099587;28;20203;-55
2022/12/12 00:41:14;;;;;;;31.60;25.97;;;-1.40;99.90;;;;;;5100180;28;20184;-57
2022/12/12 00:43:40;;;;;;;30.08;24.52;;;-1.40;99.90;;;;;;5099136;28;21447;-56
2022/12/12 00:46:06;;;;;;;30.27;24.37;;;-1.40;99.90;;;;;;5100135;28;20190;-50
2022/12/12 00:48:32;;;;;;;28.70;23.50;;;-1.40;99.90;;;;;;5099325;28;20422;-56
2022/12/12 00:51:03;;;;;;;30.87;23.90;;;-1.40;99.90;;;;;;5100323;28;20233;-57
2022/12/12 00:53:29;;;;;;;31.17;24.55;;;-1.40;99.90;;;;;;5099612;28;20410;-56
2022/12/12 00:55:56;;;;;;;28.83;24.90;;;-1.30;99.90;;;;;;5099300;28;20264;-54
2022/12/12 00:58:22;;;;;;;28.08;23.50;;;-1.30;99.90;;;;;;5099902;28;20425;-53
2022/12/12 01:00:48;;;;;;;29.30;24.00;;;-1.30;99.90;;;;;;5098812;28;20255;-53
2022/12/12 01:03:13;;;;;;;25.47;22.73;;;-1.30;99.90;;;;;;5099838;28;20429;-55
2022/12/12 01:05:39;;;;;;;29.03;22.37;;;-1.30;99.90;;;;;;5098927;28;20586;-56
2022/12/12 01:08:05;;;;;;;28.23;24.17;;;-1.30;99.90;;;;;;5098587;28;20204;-57
2022/12/12 01:10:30;;;;;;;30.17;24.67;;;-1.30;99.90;;;;;;5099168;28;20176;-56
2022/12/12 01:12:56;;;;;;;28.93;24.30;;;-1.20;99.90;;;;;;5100526;28;20257;-58
2022/12/12 01:15:22;;;;;;;27.53;23.30;;;-1.30;99.90;;;;;;5103294;28;20187;-57
2022/12/12 01:17:47;;;;;;;28.98;23.52;;;-1.30;99.90;;;;;;5103710;28;21414;-56
2022/12/12 01:20:19;;;;;;;26.90;23.07;;;-1.40;99.90;;;;;;5102906;28;20380;-56
2022/12/12 01:22:45;;;;;;;30.83;24.48;;;-1.30;99.90;;;;;;5102794;27;20183;-54
2022/12/12 01:25:12;;;;;;;31.07;25.27;;;-1.40;99.90;;;;;;5103155;28;20251;-56
2022/12/12 01:27:37;;;;;;;34.90;24.13;;;-1.30;99.90;;;;;;5102369;28;20440;-55
2022/12/12 01:30:04;;;;;;;31.10;24.23;;;-1.30;99.90;;;;;;5103306;28;20237;-56
2022/12/12 01:32:30;;;;;;;28.30;23.60;;;-1.30;99.90;;;;;;5102435;28;20188;-57
2022/12/12 01:34:56;;;;;;;30.70;24.53;;;-1.30;99.90;;;;;;5103372;28;20927;-55
2022/12/12 01:37:22;;;;;;;29.30;24.50;;;-1.30;99.90;;;;;;5102728;28;20307;-54
2022/12/12 01:39:47;;;;;;;30.23;24.23;;;-1.30;99.90;;;;;;5103411;28;20250;-50
2022/12/12 01:42:15;;;;;;;28.17;24.63;;;-1.30;99.90;;;;;;5102250;28;20530;-54
2022/12/12 01:44:40;;;;;;;32.40;24.92;;;-1.30;99.90;;;;;;5103635;28;21230;-57
2022/12/12 01:47:06;;;;;;;29.77;25.03;;;-1.30;99.90;;;;;;5102275;28;20245;-56
2022/12/12 01:49:33;;;;;;;29.93;24.10;;;-1.30;99.90;;;;;;5102553;28;20223;-58
2022/12/12 01:52:09;;;;;;;28.67;23.55;;;-1.40;99.90;;;;;;5101934;28;21170;-56
2022/12/12 01:54:41;;;;;;;28.20;23.15;;;-1.30;99.90;;;;;;5102897;28;20191;-54
2022/12/12 01:57:13;;;;;;;30.23;23.17;;;-1.30;99.90;;;;;;5102048;28;20226;-56
2022/12/12 01:59:40;;;;;;;30.67;23.80;;;-1.30;99.90;;;;;;5102912;28;20183;-53
2022/12/12 02:02:07;;;;;;;29.67;24.77;;;-1.30;99.90;;;;;;5101628;28;20176;-57
2022/12/12 02:04:34;;;;;;;33.03;24.23;;;-1.30;99.90;;;;;;5102686;28;20203;-56
2022/12/12 02:07:00;;;;;;;31.60;25.20;;;-1.30;99.90;;;;;;5101595;28;20189;-55
2022/12/12 02:09:26;;;;;;;32.30;25.20;;;-1.30;99.90;;;;;;5103015;28;20181;-56
2022/12/12 02:11:54;;;;;;;30.30;23.95;;;-1.30;99.90;;;;;;5101651;28;20487;-55
2022/12/12 02:14:26;;;;;;;29.05;23.52;;;-1.20;99.90;;;;;;5102050;28;20184;-56
2022/12/12 02:17:03;;;;;;;30.40;24.27;;;-1.20;99.90;;;;;;5101564;28;20318;-57
2022/12/12 02:19:50;;;;;;;34.00;24.80;;;-1.20;99.90;;;;;;5100918;28;20179;-54
2022/12/12 02:22:19;;;;;;;30.05;24.65;;;-1.20;99.90;;;;;;5102483;28;20180;-58
2022/12/12 02:25:15;;;;;;;34.30;25.92;;;-1.20;99.90;;;;;;5100568;28;20187;-56
2022/12/12 02:27:59;;;;;;;28.38;24.90;;;-1.20;99.90;;;;;;5102109;28;20188;-55
2022/12/12 02:31:20;;;;;;;33.42;24.98;;;-1.20;99.90;;;;;;5100982;28;20183;-57
2022/12/12 02:33:49;;;;;;;29.42;25.23;;;-1.20;99.90;;;;;;5038210;28;20189;-57
2022/12/12 02:36:26;;;;;;;32.65;25.30;;;-1.20;99.90;;;;;;5098590;28;20262;-57
2022/12/12 02:39:09;;;;;;;29.23;24.45;;;-1.20;99.90;;;;;;5100972;28;20667;-58
2022/12/12 02:41:41;;;;;;;31.65;24.52;;;-1.30;99.90;;;;;;5102075;28;20960;-56
2022/12/12 02:44:42;;;;;;;32.03;25.15;;;-1.20;99.90;;;;;;5099337;28;20188;-55
2022/12/12 02:47:28;;;;;;;28.23;25.15;;;-1.30;99.90;;;;;;5101804;28;20182;-56
2022/12/12 02:49:59;;;;;;;32.15;24.23;;;-1.30;99.90;;;;;;5101542;28;20266;-58
2022/12/12 02:52:25;;;;;;;37.75;25.58;;;-1.30;99.90;;;;;;5099869;28;20186;-57
2022/12/12 02:54:50;;;;;;;35.67;24.63;;;-1.30;99.90;;;;;;5101203;28;20657;-55
2022/12/12 02:57:22;;;;;;;32.03;25.33;;;-1.30;99.90;;;;;;5101149;28;20195;-58
2022/12/12 03:00:16;;;;;;;31.67;25.95;;;-1.30;99.90;;;;;;5100907;28;20677;-57
2022/12/12 03:09:33;;;;;;;30.70;25.65;;;-1.30;99.90;;;;;;5101628;28;20236;-57
2022/12/12 03:12:31;;;;;;;34.20;24.70;;;-1.30;99.90;;;;;;5101168;28;20699;-56
2022/12/12 03:15:04;;;;;;;30.77;24.98;;;-1.30;99.90;;;;;;5100157;28;20271;-57
2022/12/12 03:17:40;;;;;;;37.95;25.73;;;-1.30;99.90;;;;;;5099871;28;20785;-56
2022/12/12 03:20:21;;;;;;;30.25;25.33;;;-1.30;99.90;;;;;;5100555;28;20176;-56
2022/12/12 03:22:53;;;;;;;38.85;25.40;;;-1.20;99.90;;;;;;5086694;28;20246;-56
2022/12/12 03:25:22;;;;;;;34.08;25.52;;;-1.30;99.90;;;;;;5100871;28;20191;-55
2022/12/12 03:28:00;;;;;;;35.70;28.27;;;-1.20;99.90;;;;;;5100963;28;20257;-55
2022/12/12 03:30:29;;;;;;;31.85;25.05;;;-1.20;99.90;;;;;;5098535;28;20187;-54
2022/12/12 03:33:05;;;;;;;37.55;26.50;;;-1.20;99.90;;;;;;5101374;28;20673;-52
2022/12/12 03:35:36;;;;;;;34.83;25.80;;;-1.20;99.90;;;;;;5099912;28;20195;-51
2022/12/12 03:38:15;;;;;;;32.80;25.90;;;-1.20;99.90;;;;;;5100581;28;21392;-55
2022/12/12 03:41:03;;;;;;;33.63;26.85;;;-1.20;99.90;;;;;;5099954;28;20190;-47
2022/12/12 03:43:34;;;;;;;32.08;26.20;;;-1.10;99.90;;;;;;5100828;28;20180;-49
2022/12/12 03:46:14;;;;;;;36.35;27.30;;;-1.10;99.90;;;;;;5099844;28;20188;-50
2022/12/12 03:48:46;;;;;;;33.47;26.50;;;-1.10;99.90;;;;;;5101299;28;20186;-46
2022/12/12 03:51:27;;;;;;;37.38;26.63;;;-1.10;99.90;;;;;;5100208;28;20191;-48
2022/12/12 03:53:56;;;;;;;35.55;25.98;;;-1.10;99.90;;;;;;5100428;28;20272;-53
2022/12/12 03:56:30;;;;;;;33.90;26.95;;;-1.10;99.90;;;;;;5099287;28;20215;-49
2022/12/12 03:59:02;;;;;;;35.67;25.15;;;-1.10;99.90;;;;;;5100506;28;20225;-48
2022/12/12 04:01:41;;;;;;;30.95;26.20;;;-1.00;99.90;;;;;;5100181;28;20583;-47
2022/12/12 04:04:26;;;;;;;41.42;26.92;;;-1.10;99.90;;;;;;5100821;28;20673;-52
2022/12/12 04:07:13;;;;;;;29.52;24.98;;;-1.10;99.90;;;;;;5099902;28;20509;-51
2022/12/12 04:13:06;;;;;;;33.90;26.30;;;-1.00;99.90;;;;;;5100916;28;20637;-48
2022/12/12 04:15:52;;;;;;;37.63;26.50;;;-1.10;99.90;;;;;;5091320;28;20200;-50
2022/12/12 04:18:39;;;;;;;28.77;25.63;;;-1.00;99.90;;;;;;5099259;28;20199;-53
2022/12/12 04:24:35;;;;;;;29.52;26.33;;;-1.10;99.90;;;;;;5100078;28;20214;-45
2022/12/12 04:27:27;;;;;;;34.65;25.17;;;-1.10;99.90;;;;;;5100779;28;20202;-52
2022/12/12 04:30:04;;;;;;;33.83;24.80;;;-1.00;99.90;;;;;;5098809;28;20222;-52
2022/12/12 04:32:41;;;;;;;36.40;25.60;;;-1.00;99.90;;;;;;5100473;28;20175;-52
2022/12/12 04:35:14;;;;;;;31.08;25.73;;;-1.00;99.90;;;;;;5100121;28;20184;-48
2022/12/12 04:37:47;;;;;;;33.25;25.70;;;-1.00;99.90;;;;;;5100363;28;20253;-48
2022/12/12 04:40:32;;;;;;;29.13;23.25;;;-1.00;99.90;;;;;;5099379;28;20187;-52
2022/12/12 04:43:21;;;;;;;30.58;25.13;;;-1.00;99.90;;;;;;5090287;28;20180;-50
2022/12/12 04:45:53;;;;;;;30.83;24.35;;;-0.90;99.90;;;;;;5086756;28;20203;-49
2022/12/12 04:48:22;;;;;;;30.33;25.92;;;-0.90;99.90;;;;;;5101074;28;20194;-47
2022/12/12 04:50:51;;;;;;;32.88;24.45;;;-1.00;99.90;;;;;;5102760;28;20195;-49
2022/12/12 04:53:24;;;;;;;30.77;24.70;;;-1.00;99.90;;;;;;5103776;28;20258;-48
2022/12/12 04:55:55;;;;;;;28.63;24.30;;;-0.90;99.90;;;;;;5103646;28;20920;-50
2022/12/12 04:58:21;;;;;;;26.58;23.17;;;-0.90;99.90;;;;;;5103750;28;20244;-48
2022/12/12 05:01:07;;;;;;;30.85;24.42;;;-0.90;99.90;;;;;;5102842;28;20194;-50
2022/12/12 05:03:45;;;;;;;30.95;23.75;;;-0.90;99.90;;;;;;5102432;28;20665;-53
2022/12/12 05:06:14;;;;;;;25.95;22.92;;;-0.90;99.90;;;;;;5102995;28;20191;-49
2022/12/12 05:08:43;;;;;;;32.15;24.38;;;-0.90;99.90;;;;;;5102958;28;20241;-46
2022/12/12 05:11:11;;;;;;;28.73;24.20;;;-0.90;99.90;;;;;;5103273;27;20260;-48
2022/12/12 05:13:40;;;;;;;28.35;22.58;;;-0.90;99.90;;;;;;5103950;28;20187;-47
2022/12/12 05:16:31;;;;;;;28.73;24.48;;;-0.90;99.90;;;;;;5102798;28;20235;-51
2022/12/12 05:18:57;;;;;;;28.60;22.13;;;-0.90;99.90;;;;;;5103826;28;21042;-50
2022/12/12 05:21:23;;;;;;;27.50;23.45;;;-0.80;99.90;;;;;;5102334;28;20189;-51
2022/12/12 05:23:49;;;;;;;30.67;22.60;;;-0.90;99.90;;;;;;5103723;28;20177;-51
2022/12/12 05:26:22;;;;;;;31.70;24.23;;;-0.80;99.90;;;;;;5102381;28;20275;-51
2022/12/12 05:28:48;;;;;;;33.45;23.80;;;-0.80;99.90;;;;;;5103198;28;20211;-54
2022/12/12 05:31:13;;;;;;;28.03;22.97;;;-0.80;99.90;;;;;;5102193;28;20651;-55
2022/12/12 05:33:39;;;;;;;30.03;23.43;;;-0.80;99.90;;;;;;5102660;28;20735;-52
2022/12/12 05:36:05;;;;;;;29.17;24.13;;;-0.80;99.90;;;;;;5100438;28;20215;-50
2022/12/12 05:38:30;;;;;;;31.97;24.97;;;-0.90;99.90;;;;;;5103246;28;20237;-49
2022/12/12 05:40:56;;;;;;;31.80;25.97;;;-1.00;99.90;;;;;;5102492;28;20430;-56
2022/12/12 05:43:22;;;;;;;28.87;24.27;;;-0.90;99.90;;;;;;5100695;28;20184;-57
2022/12/12 05:45:47;;;;;;;27.63;22.90;;;-1.00;99.90;;;;;;5101704;28;20211;-55
2022/12/12 05:48:13;;;;;;;33.00;24.83;;;-0.90;99.90;;;;;;5101587;28;20212;-58
2022/12/12 05:50:38;;;;;;;31.10;24.30;;;-0.90;99.90;;;;;;5101468;28;20184;-55
2022/12/12 05:53:04;;;;;;;31.00;24.83;;;-0.90;99.90;;;;;;5102823;28;20176;-57
2022/12/12 05:55:30;;;;;;;35.17;25.97;;;-0.90;99.90;;;;;;5102049;28;20175;-55
2022/12/12 05:57:55;;;;;;;33.93;25.60;;;-0.90;99.90;;;;;;5101026;28;20204;-57
2022/12/12 06:00:21;;;;;;;31.50;24.53;;;-0.90;99.90;;;;;;5101903;28;20295;-57
2022/12/12 06:02:46;;;;;;;30.50;25.63;;;-0.80;99.90;;;;;;5102371;28;20184;-57
2022/12/12 06:05:14;;;;;;;30.30;25.10;;;-0.80;99.90;;;;;;5101134;28;20276;-56
2022/12/12 06:07:41;;;;;;;30.05;25.02;;;-0.80;99.90;;;;;;5099879;28;20188;-58
2022/12/12 06:10:07;;;;;;;34.40;24.13;;;-0.80;99.90;;;;;;5101968;28;20568;-55
2022/12/12 06:12:33;;;;;;;32.45;25.20;;;-0.80;99.90;;;;;;5083076;28;20664;-53
2022/12/12 06:14:58;;;;;;;29.70;24.80;;;-0.90;99.90;;;;;;5102561;28;20191;-55
2022/12/12 06:17:24;;;;;;;32.17;25.83;;;-0.90;99.90;;;;;;5102485;28;20244;-57
2022/12/12 06:19:50;;;;;;;34.63;26.07;;;-1.00;99.90;;;;;;5102788;28;20580;-56
2022/12/12 06:22:16;;;;;;;29.63;23.52;;;-1.00;99.90;;;;;;5102958;27;20177;-56
2022/12/12 06:24:42;;;;;;;33.30;26.20;;;-0.90;99.90;;;;;;5102646;28;20176;-57
2022/12/12 06:27:07;;;;;;;30.03;25.47;;;-0.90;99.90;;;;;;5102148;28;20203;-55
2022/12/12 06:29:33;;;;;;;33.00;25.73;;;-0.90;99.90;;;;;;5102166;28;20205;-57
2022/12/12 06:31:58;;;;;;;30.90;23.97;;;-0.90;99.90;;;;;;5102374;28;20743;-57
2022/12/12 06:34:24;;;;;;;30.30;24.33;;;-1.00;99.90;;;;;;5102095;28;20188;-58
2022/12/12 06:36:49;;;;;;;30.83;25.40;;;-1.00;99.90;;;;;;5101178;28;20204;-57
2022/12/12 06:39:15;;;;;;;31.07;25.97;;;-0.90;99.90;;;;;;5100471;28;20541;-57
2022/12/12 06:41:41;;;;;;;30.03;25.50;;;-0.90;99.90;;;;;;5101693;28;20190;-49
2022/12/12 06:44:06;;;;;;;32.67;25.20;;;-0.90;99.90;;;;;;5100559;28;20172;-58
2022/12/12 06:46:32;;;;;;;34.77;24.83;;;-0.90;99.90;;;;;;5101584;28;20175;-56
2022/12/12 06:48:58;;;;;;;33.50;25.10;;;-0.90;99.90;;;;;;5101177;28;20229;-57
2022/12/12 06:51:35;;;;;;;30.83;25.23;;;-0.90;99.90;;;;;;5102109;28;20236;-54
2022/12/12 06:54:00;;;;;;;33.00;26.67;;;-0.90;99.90;;;;;;5101505;28;20430;-57
2022/12/12 06:56:26;;;;;;;31.30;25.90;;;-0.90;99.90;;;;;;5101109;28;20199;-57
2022/12/12 06:58:53;;;;;;;33.05;27.45;;;-0.90;99.90;;;;;;5101319;28;20180;-56
2022/12/12 07:01:20;;;;;;;32.95;27.90;;;-0.90;99.90;;;;;;5101685;28;20213;-57
2022/12/12 07:03:48;;;;;;;31.88;26.77;;;-0.90;99.90;;;;;;5101315;28;20245;-56
2022/12/12 07:06:14;;;;;;;33.70;28.00;;;-0.90;99.90;;;;;;5101463;28;20196;-56
2022/12/12 07:08:40;;;;;;;31.00;27.52;;;-1.00;99.90;;;;;;5101606;28;20180;-57
2022/12/12 07:11:20;;;;;;;37.20;27.77;;;-0.90;99.90;;;;;;5100999;27;20241;-56
2022/12/12 07:13:46;;;;;;;30.98;26.83;;;-0.90;99.90;;;;;;5101310;28;20305;-55
2022/12/12 07:16:12;;;;;;;31.67;27.03;;;-0.90;99.90;;;;;;5101130;28;20240;-56
2022/12/12 07:18:38;;;;;;;33.07;28.07;;;-1.00;99.90;;;;;;5101420;28;20462;-54
2022/12/12 07:21:06;;;;;;;33.72;28.20;;;-1.00;99.90;;;;;;5101078;28;20184;-56
2022/12/12 07:23:32;;;;;;;37.67;28.95;;;-1.00;99.90;;;;;;5101642;28;20938;-57
2022/12/12 07:25:58;;;;;;;34.08;25.67;;;-1.00;99.90;;;;;;5100133;28;20921;-53
2022/12/12 07:28:23;;;;;;;30.60;24.87;;;-1.10;99.90;;;;;;5100964;28;20201;-53
2022/12/12 07:30:49;;;;;;;36.77;24.10;;;-1.00;99.90;;;;;;5100279;28;20184;-55
2022/12/12 07:33:16;;;;;;;30.77;25.90;;;-1.00;99.90;;;;;;5101293;28;20180;-57
2022/12/12 07:35:42;;;;;;;31.60;24.50;;;-1.00;99.90;;;;;;5099010;28;20421;-58
2022/12/12 07:38:09;;;;;;;31.13;24.58;;;-0.90;99.90;;;;;;5101286;28;20223;-57
2022/12/12 07:40:35;;;;;;;32.78;25.52;;;-0.90;99.90;;;;;;5100647;28;20180;-58
2022/12/12 07:43:01;;;;;;;30.98;24.25;;;-1.00;99.90;;;;;;5101305;28;20262;-56
2022/12/12 07:45:27;;;;;;;29.73;23.37;;;-1.00;99.90;;;;;;5100939;28;20200;-58
2022/12/12 07:47:53;;;;;;;34.05;24.08;;;-0.90;99.90;;;;;;5100797;28;20479;-59
2022/12/12 07:50:19;;;;;;;29.93;24.77;;;-1.00;99.90;;;;;;5100307;28;20196;-58
2022/12/12 07:52:44;;;;;;;32.97;25.43;;;-0.90;99.90;;;;;;5100489;28;20430;-59
2022/12/12 07:55:10;;;;;;;28.07;23.30;;;-0.90;99.90;;;;;;5100477;28;20417;-60
2022/12/12 07:57:37;;;;;;;31.58;25.35;;;-0.90;99.90;;;;;;5100568;28;20209;-56
2022/12/12 08:00:07;;;;;;;29.98;23.95;;;-0.80;99.90;;;;;;5100401;28;20244;-57
2022/12/12 08:02:32;;;;;;;29.38;23.90;;;-0.90;99.90;;;;;;5101010;28;21309;-58
2022/12/12 08:04:58;;;;;;;32.10;25.00;;;-0.80;99.90;;;;;;5100287;28;20274;-50
2022/12/12 08:07:23;;;;;;;33.43;24.97;;;-0.80;99.90;;;;;;5100860;28;20226;-49
2022/12/12 08:09:49;;;;;;;34.97;25.20;;;-0.80;99.90;;;;;;5100106;28;20204;-47
2022/12/12 08:12:15;;;;;;;32.13;25.23;;;-0.70;99.90;;;;;;5101046;28;20645;-48
2022/12/12 08:14:40;;;;;;;28.47;24.10;;;-0.70;99.90;;;;;;5100579;28;20706;-48
2022/12/12 08:17:06;;;;;;;30.97;23.90;;;-0.70;99.90;;;;;;5100457;28;20231;-52
2022/12/12 08:19:32;;;;;;;30.30;23.90;;;-0.60;99.90;;;;;;5100976;28;20180;-57
2022/12/12 08:21:58;;;;;;;27.33;22.70;;;-0.60;99.90;;;;;;5100345;28;20421;-57
2022/12/12 08:24:23;;;;;;;29.80;23.20;;;-0.60;99.90;;;;;;5103580;28;20532;-58
2022/12/12 08:26:50;;;;;;;25.13;22.43;;;-0.60;99.90;;;;;;5104546;28;20234;-58
2022/12/12 08:29:15;;;;;;;30.67;24.13;;;-0.70;99.90;;;;;;5104021;28;20208;-58
2022/12/12 08:31:41;;;;;;;23.93;21.43;;;-0.60;99.90;;;;;;5104607;28;20655;-56
2022/12/12 08:34:07;;;;;;;26.13;21.50;;;-0.60;99.90;;;;;;5104584;28;20192;-57
2022/12/12 08:36:34;;;;;;;28.10;21.33;;;-0.60;99.90;;;;;;5104325;28;20199;-57
2022/12/12 08:39:14;;;;;;;26.92;22.13;;;-0.70;99.90;;;;;;5104298;28;20201;-57
2022/12/12 08:41:42;;;;;;;25.60;21.75;;;-0.70;99.90;;;;;;5104554;28;20176;-58
2022/12/12 08:44:10;;;;;;;23.30;20.65;;;-0.70;99.90;;;;;;5103756;28;20650;-56
2022/12/12 08:46:36;;;;;;;28.05;22.48;;;-0.70;99.90;;;;;;5104355;28;20208;-48
2022/12/12 08:49:02;;;;;;;24.53;21.93;;;-0.70;99.90;;;;;;5104968;28;20271;-56
2022/12/12 08:51:27;;;;;;;27.10;21.63;;;-0.80;99.90;;;;;;5103670;28;20409;-56
2022/12/12 08:53:53;;;;;;;28.10;22.67;;;-0.80;99.90;;;;;;5104192;28;20284;-58
2022/12/12 08:56:20;;;;;;;31.33;22.73;;;-0.70;99.90;;;;;;5104144;28;20640;-58
2022/12/12 08:58:47;;;;;;;25.52;21.95;;;-0.70;99.90;;;;;;5102720;28;20179;-59
2022/12/12 09:01:21;;;;;;;24.05;21.55;;;-0.60;99.90;;;;;;5103550;28;20192;-58
2022/12/12 09:03:47;;;;;;;26.50;22.42;;;-0.60;99.90;;;;;;5088977;28;20283;-56
2022/12/12 09:06:14;;;;;;;26.10;22.55;;;-0.60;99.90;;;;;;5103705;28;20241;-59
2022/12/12 09:08:40;;;;;;;27.52;23.10;;;-0.60;99.90;;;;;;5103869;28;20186;-57
2022/12/12 09:11:06;;;;;;;25.20;22.60;;;-0.50;99.90;;;;;;5104199;28;20185;-56
2022/12/12 09:13:32;;;;;;;24.88;22.20;;;-0.60;99.90;;;;;;5103815;28;20208;-58
2022/12/12 09:15:58;;;;;;;25.08;22.27;;;-0.50;99.90;;;;;;5103525;28;20686;-58
2022/12/12 09:18:24;;;;;;;26.55;23.70;;;-0.50;99.90;;;;;;5102345;28;20186;-50
2022/12/12 09:20:52;;;;;;;25.47;21.30;;;-0.40;99.90;;;;;;5102639;28;21187;-58
2022/12/12 09:23:19;;;;;;;24.58;21.92;;;-0.40;99.90;;;;;;5102424;28;20932;-58
2022/12/12 09:25:45;;;;;;;25.42;21.13;;;-0.40;99.90;;;;;;5102351;28;20763;-52
2022/12/12 09:28:12;;;;;;;26.10;23.00;;;-0.40;99.90;;;;;;5102596;28;20184;-51
2022/12/12 09:30:39;;;;;;;25.55;22.58;;;-0.30;99.90;;;;;;5102452;28;20241;-48
2022/12/12 09:33:04;;;;;;;24.17;21.60;;;-0.40;99.90;;;;;;5102580;28;20180;-48
2022/12/12 09:35:30;;;;;;;24.00;21.40;;;-0.40;99.90;;;;;;5101681;28;21049;-50
2022/12/12 09:37:56;;;;;;;27.60;22.57;;;-0.30;99.90;;;;;;5102286;28;20208;-48
2022/12/12 09:40:32;;;;;;;24.10;21.13;;;-0.30;99.90;;;;;;5102414;28;20183;-49
2022/12/12 09:42:58;;;;;;;23.83;20.63;;;-0.30;99.90;;;;;;5102111;28;20179;-49
2022/12/12 09:45:25;;;;;;;25.15;21.67;;;-0.30;99.90;;;;;;5100836;28;20188;-50
2022/12/12 09:47:54;;;;;;;26.35;21.27;;;-0.20;99.90;;;;;;5100821;28;20185;-48
2022/12/12 09:50:29;;;;;;;26.85;22.63;;;-0.20;99.90;;;;;;5101751;28;20669;-50
2022/12/12 09:53:00;;;;;;;26.30;22.05;;;-0.20;99.90;;;;;;5101630;28;20182;-49
2022/12/12 09:55:43;;;;;;;23.92;21.20;;;-0.20;99.90;;;;;;5102155;28;20205;-47
2022/12/12 09:58:42;;;;;;;26.05;22.67;;;-0.20;99.90;;;;;;5101603;28;21268;-50
2022/12/12 10:01:20;;;;;;;24.08;21.52;;;0.00;99.90;;;;;;5101767;28;20176;-52
2022/12/12 10:04:00;;;;;;;24.08;21.73;;;0.00;99.90;;;;;;5101537;28;20168;-51
2022/12/12 10:06:33;;;;;;;24.50;21.70;;;0.00;99.90;;;;;;5101861;28;20673;-51
2022/12/12 10:09:23;;;;;;;24.35;21.83;;;-0.10;99.90;;;;;;5101634;28;20184;-46
2022/12/12 10:11:53;;;;;;;25.90;23.20;;;-0.10;99.90;;;;;;5101456;28;20199;-52
2022/12/12 10:14:46;;;;;;;26.52;23.00;;;0.00;99.90;;;;;;5101811;28;20828;-51
2022/12/12 10:17:33;;;;;;;25.00;22.10;;;0.00;99.90;;;;;;5064141;28;1093726;-47
2022/12/12 10:20:03;;;;;;;26.55;23.52;;;0.00;99.90;;;;;;5102255;28;20673;-47
2022/12/12 10:22:39;;;;;;;26.30;22.58;;;-0.10;99.90;;;;;;5102218;28;20176;-47
2022/12/12 10:25:31;;;;;;;27.13;24.17;;;-0.10;99.90;;;;;;5102446;28;20172;-46
2022/12/12 10:28:15;;;;;;;25.35;21.83;;;-0.20;99.90;;;;;;5102499;28;20176;-55
2022/12/12 10:31:11;;;;;;;25.25;22.75;;;-0.10;99.90;;;;;;5102253;27;20193;-53
2022/12/12 10:33:59;;;;;;;25.65;22.85;;;0.00;99.90;;;;;;5102392;28;20210;-53
2022/12/12 10:36:56;;;;;;;26.13;23.40;;;-0.10;99.90;;;;;;5102676;28;20196;-49
2022/12/12 10:39:37;;;;;;;26.45;22.77;;;0.00;99.90;;;;;;5102355;28;20238;-46
2022/12/12 10:42:12;;;;;;;24.17;21.83;;;0.00;99.90;;;;;;5100410;28;20196;-58
2022/12/12 10:45:07;;;;;;;24.73;22.33;;;-0.10;99.90;;;;;;5102575;28;20230;-58
2022/12/12 10:47:33;;;;;;;22.88;20.55;;;-0.10;99.90;;;;;;5101463;28;20191;-59
2022/12/12 10:50:27;;;;;;;27.83;23.35;;;-0.10;99.90;;;;;;5102171;28;20189;-58
2022/12/12 10:52:53;;;;;;;24.50;21.48;;;-0.10;99.90;;;;;;5090952;28;20737;-59
2022/12/12 10:55:37;;;;;;;25.70;22.97;;;-0.10;99.90;;;;;;5101609;28;20241;-52
2022/12/12 10:58:04;;;;;;;24.67;21.95;;;-0.10;99.90;;;;;;5101512;28;20204;-52
2022/12/12 11:00:34;;;;;;;25.45;21.40;;;-0.10;99.90;;;;;;5101086;28;20183;-48
2022/12/12 11:03:10;;;;;;;24.40;21.38;;;-0.10;99.90;;;;;;5101959;28;20229;-53
2022/12/12 11:05:40;;;;;;;24.73;22.02;;;-0.10;99.90;;;;;;5101731;28;20179;-51
2022/12/12 11:08:20;;;;;;;25.75;21.88;;;-0.10;99.90;;;;;;5101676;28;20259;-59
2022/12/12 11:11:21;;;;;;;25.17;22.50;;;-0.10;99.90;;;;;;5101373;28;20218;-59
2022/12/12 11:13:52;;;;;;;24.13;21.60;;;-0.10;99.90;;;;;;5091060;28;20284;-59
2022/12/12 11:16:24;;;;;;;24.13;21.70;;;0.00;99.90;;;;;;5101360;28;21570;-59
2022/12/12 11:19:17;;;;;;;22.63;20.15;;;0.10;99.90;;;;;;5101202;28;20282;-58
2022/12/12 11:21:45;;;;;;;25.02;22.40;;;0.00;99.90;;;;;;5098097;28;20190;-59
2022/12/12 11:24:17;;;;;;;24.50;21.67;;;0.00;99.90;;;;;;5101013;28;20180;-59
2022/12/12 11:26:57;;;;;;;27.35;21.85;;;0.00;99.90;;;;;;5101269;28;20263;-59
2022/12/12 11:29:43;;;;;;;28.33;21.60;;;-0.10;99.90;;;;;;5100748;28;20184;-59
2022/12/12 11:32:19;;;;;;;23.85;20.65;;;-0.10;99.90;;;;;;5101126;28;20199;-59
2022/12/12 11:34:58;;;;;;;24.60;20.48;;;-0.10;99.90;;;;;;5100902;28;20203;-57
2022/12/12 11:37:31;;;;;;;23.00;20.40;;;-0.10;99.90;;;;;;5101102;28;20208;-57
2022/12/12 11:39:57;;;;;;;23.40;20.23;;;-0.20;99.90;;;;;;5101384;28;20184;-57
2022/12/12 11:42:27;;;;;;;23.60;21.10;;;-0.10;99.90;;;;;;5100907;28;20728;-57
2022/12/12 11:44:59;;;;;;;27.58;22.05;;;-0.10;99.90;;;;;;5101213;28;20184;-58
2022/12/12 11:47:28;;;;;;;23.63;21.15;;;-0.20;99.90;;;;;;5099751;28;20216;-58
2022/12/12 11:49:57;;;;;;;24.73;21.83;;;-0.10;99.90;;;;;;5100622;28;20302;-58
2022/12/12 11:52:27;;;;;;;25.17;21.83;;;-0.10;99.90;;;;;;5100223;28;20177;-58
2022/12/12 11:54:54;;;;;;;28.90;23.08;;;-0.10;99.90;;;;;;5100471;28;20184;-57
2022/12/12 11:58:02;;;;;;;25.58;21.35;;;-0.10;99.90;;;;;;5100055;28;20670;-59
2022/12/12 12:00:38;;;;;;;25.98;20.35;;;-0.20;99.90;;;;;;5100762;28;20180;-58
2022/12/12 12:03:19;;;;;;;24.08;21.45;;;-0.20;99.90;;;;;;5100927;28;20175;-57
2022/12/12 12:06:09;;;;;;;26.42;22.95;;;-0.10;99.90;;;;;;5100343;28;20186;-49
2022/12/12 12:08:56;;;;;;;23.85;21.10;;;0.00;99.90;;;;;;5100322;28;20312;-58
2022/12/12 12:11:37;;;;;;;24.30;21.45;;;0.00;99.90;;;;;;5100368;28;20964;-49
2022/12/12 12:14:03;;;;;;;24.20;21.00;;;-0.10;99.90;;;;;;5100977;28;20191;-58
2022/12/12 12:16:45;;;;;;;27.00;21.67;;;0.00;99.90;;;;;;5100896;28;21047;-58
2022/12/12 12:19:38;;;;;;;25.30;22.63;;;0.00;99.90;;;;;;5100642;28;20524;-56
2022/12/12 12:22:37;;;;;;;25.38;22.67;;;0.00;99.90;;;;;;5100644;28;20311;-58
2022/12/12 12:25:12;;;;;;;24.50;20.55;;;0.00;99.90;;;;;;5100572;28;20247;-58
2022/12/12 12:27:49;;;;;;;27.50;21.83;;;0.00;99.90;;;;;;5100425;28;20254;-57
2022/12/12 12:30:24;;;;;;;24.83;22.13;;;0.00;99.90;;;;;;5100523;28;20230;-58
2022/12/12 12:33:23;;;;;;;25.10;21.58;;;0.00;99.90;;;;;;5099953;28;20548;-58
2022/12/12 12:36:03;;;;;;;24.30;21.80;;;0.10;99.90;;;;;;5100048;28;20203;-57
2022/12/12 12:39:15;;;;;;;26.58;23.67;;;0.10;99.90;;;;;;5100411;28;20194;-47
2022/12/12 12:42:26;;;;;;;24.67;22.20;;;0.10;99.90;;;;;;5085983;28;20199;-49
2022/12/12 12:45:05;;;;;;;26.60;23.45;;;0.10;99.90;;;;;;5100332;28;20243;-50
2022/12/12 12:47:52;;;;;;;26.33;23.35;;;0.10;99.90;;;;;;5100221;28;20177;-51
2022/12/12 12:50:28;;;;;;;26.02;23.30;;;0.20;99.90;;;;;;5100036;28;20230;-47
2022/12/12 12:53:18;;;;;;;26.20;22.90;;;0.20;99.90;;;;;;5100972;28;20169;-49
2022/12/12 12:55:49;;;;;;;25.35;22.65;;;0.20;99.90;;;;;;5099967;28;20261;-47
2022/12/12 12:58:21;;;;;;;26.30;23.60;;;0.20;99.90;;;;;;5100148;28;20232;-52
2022/12/12 13:01:08;;;;;;;26.40;23.70;;;0.20;99.90;;;;;;5099809;28;20688;-57
2022/12/12 13:04:04;;;;;;;26.60;23.75;;;0.20;99.90;;;;;;5100382;28;20177;-59
2022/12/12 13:06:56;;;;;;;27.00;24.10;;;0.30;99.90;;;;;;5100087;28;20182;-60
2022/12/12 13:09:51;;;;;;;26.52;23.67;;;0.30;99.90;;;;;;5101333;28;20202;-60